Time;durP1;ratioP1;P1;durP2;ratioP2;P2;SDS_P1;SDS_P2;PMS_P1;PMS_P2;Temp;Humidity;BMP_temperature;BMP_pressure;BME280_temperature;BME280_humidity;BME280_pressure;Samples;Min_cycle;Max_cycle;Signal;HPM_P1;HPM_P2
2022/08/14 00:01:05;;;;;;;3.88;1.80;;;;;;;22.94;55.09;98183.66;5001550;28;20025;-59
2022/08/14 00:03:31;;;;;;;4.13;1.90;;;;;;;23.09;55.63;98193.75;5001275;28;20072;-58
2022/08/14 00:05:58;;;;;;;4.90;1.73;;;;;;;22.95;55.36;98186.06;5010566;28;20108;-59
2022/08/14 00:08:25;;;;;;;3.72;1.70;;;;;;;22.94;55.90;98187.09;5018193;28;20042;-58
2022/08/14 00:10:51;;;;;;;4.05;1.70;;;;;;;22.92;56.07;98181.22;5016776;28;20044;-58
2022/08/14 00:13:18;;;;;;;3.92;1.73;;;;;;;22.87;56.36;98177.66;5019899;28;20368;-58
2022/08/14 00:15:46;;;;;;;3.60;1.65;;;;;;;22.91;56.44;98173.50;5019647;28;20167;-58
2022/08/14 00:18:14;;;;;;;3.90;1.70;;;;;;;22.91;56.10;98169.03;5018266;28;20056;-60
2022/08/14 00:20:41;;;;;;;5.18;1.95;;;;;;;22.87;56.20;98169.72;5021493;28;20541;-59
2022/08/14 00:23:08;;;;;;;4.38;1.85;;;;;;;22.95;55.99;98169.38;5020167;28;20029;-57
2022/08/14 00:25:35;;;;;;;4.00;1.70;;;;;;;22.73;56.94;98166.53;4998916;28;20120;-58
2022/08/14 00:28:01;;;;;;;5.57;2.20;;;;;;;22.67;57.26;98162.16;5019140;28;20037;-57
2022/08/14 00:30:27;;;;;;;5.57;2.10;;;;;;;22.75;57.07;98162.59;5017977;28;20463;-57
2022/08/14 00:32:53;;;;;;;4.57;2.00;;;;;;;22.50;57.48;98139.03;5013307;28;20706;-58
2022/08/14 00:35:18;;;;;;;4.20;1.70;;;;;;;22.70;57.63;98159.84;4994604;28;20018;-57
2022/08/14 00:37:45;;;;;;;4.68;2.00;;;;;;;22.70;57.50;98159.84;5008730;28;20566;-58
2022/08/14 00:40:14;;;;;;;5.45;2.08;;;;;;;22.67;57.57;98157.69;5014966;28;20113;-57
2022/08/14 00:42:40;;;;;;;4.68;2.00;;;;;;;22.64;57.57;98150.19;5011045;28;20051;-61
2022/08/14 00:45:08;;;;;;;4.72;1.80;;;;;;;22.77;57.18;98157.88;5004333;28;20468;-57
2022/08/14 00:47:34;;;;;;;5.43;2.10;;;;;;;22.62;57.53;98145.13;5016454;28;20045;-58
2022/08/14 00:50:01;;;;;;;3.90;1.85;;;;;;;22.52;57.48;98122.91;4999218;28;20171;-59
2022/08/14 00:52:26;;;;;;;5.13;1.67;;;;;;;22.74;57.66;98149.59;5012213;28;20803;-58
2022/08/14 00:54:53;;;;;;;5.25;1.70;;;;;;;22.44;57.40;98106.34;5016021;28;20029;-59
2022/08/14 00:57:23;;;;;;;5.57;1.70;;;;;;;22.58;57.56;98143.16;5018934;28;20433;-58
2022/08/14 00:59:49;;;;;;;5.00;1.60;;;;;;;22.41;57.70;98122.69;5021483;28;20096;-58
2022/08/14 01:02:17;;;;;;;3.60;1.60;;;;;;;22.30;57.86;98097.03;5017535;28;20029;-58
2022/08/14 01:04:43;;;;;;;4.10;1.80;;;;;;;22.56;58.44;98143.44;5011335;28;20018;-58
2022/08/14 01:07:09;;;;;;;4.80;1.77;;;;;;;22.38;58.00;98096.69;5011523;28;20137;-58
2022/08/14 01:09:35;;;;;;;4.70;1.90;;;;;;;22.67;57.49;98133.84;5017654;28;20037;-58
2022/08/14 01:12:02;;;;;;;3.90;1.70;;;;;;;22.41;57.88;98103.34;5018543;28;20029;-57
2022/08/14 01:14:28;;;;;;;4.50;1.52;;;;;;;22.68;57.42;98132.78;5021640;28;20021;-57
2022/08/14 01:16:53;;;;;;;4.85;1.70;;;;;;;22.56;57.61;98116.09;5019070;28;20469;-58
2022/08/14 01:22:06;;;;;;;4.00;1.65;;;;;;;22.54;55.80;98107.59;5018734;28;20562;-59
2022/08/14 01:24:32;;;;;;;4.43;2.03;;;;;;;22.44;56.16;98084.38;5020393;28;20128;-59
2022/08/14 01:26:58;;;;;;;4.88;1.70;;;;;;;22.65;56.26;98109.41;5000971;28;20124;-61
2022/08/14 01:29:25;;;;;;;4.32;1.63;;;;;;;22.70;56.44;98103.41;5019656;28;20036;-59
2022/08/14 01:31:53;;;;;;;4.82;1.70;;;;;;;22.63;57.18;98103.53;5018509;28;20030;-58
2022/08/14 01:34:22;;;;;;;3.65;1.50;;;;;;;22.25;57.14;98052.72;5009877;28;20473;-58
2022/08/14 01:36:48;;;;;;;4.35;1.85;;;;;;;22.59;56.95;98097.91;5017064;28;20030;-58
2022/08/14 01:39:16;;;;;;;5.35;1.50;;;;;;;22.32;56.39;98062.38;5002943;28;20064;-58
2022/08/14 01:41:42;;;;;;;4.47;1.95;;;;;;;;;;5004471;28;20128;-57
2022/08/14 01:44:11;;;;;;;5.32;1.77;;;;;;;22.52;56.16;98086.63;5019672;28;20563;-59
2022/08/14 01:46:43;;;;;;;3.75;1.50;;;;;;;22.53;56.24;98098.06;5000446;28;20073;-58
2022/08/14 01:49:11;;;;;;;4.78;1.75;;;;;;;22.22;57.26;98061.13;5016804;28;20024;-58
2022/08/14 01:51:38;;;;;;;5.63;1.88;;;;;;;22.17;57.61;98076.09;5015517;28;20722;-59
2022/08/14 01:54:10;;;;;;;4.38;1.70;;;;;;;22.32;57.60;98097.63;5003185;28;20040;-57
2022/08/14 01:56:39;;;;;;;4.47;1.75;;;;;;;22.27;56.43;98100.97;5013848;28;20029;-57
2022/08/14 01:59:14;;;;;;;3.63;1.70;;;;;;;22.15;57.85;98067.59;5017495;28;20029;-58
2022/08/14 02:01:39;;;;;;;3.70;1.67;;;;;;;22.31;58.20;98101.31;5017177;28;20037;-58
2022/08/14 02:04:05;;;;;;;4.68;1.90;;;;;;;22.31;57.77;98098.66;5018850;28;20045;-57
2022/08/14 02:06:30;;;;;;;4.03;1.70;;;;;;;22.20;58.62;98094.16;5017479;28;20037;-58
2022/08/14 02:08:56;;;;;;;5.40;1.88;;;;;;;22.04;59.14;98091.19;5016155;28;20056;-58
2022/08/14 02:11:24;;;;;;;3.85;1.80;;;;;;;21.96;59.76;98080.13;5013288;28;20642;-58
2022/08/14 02:14:02;;;;;;;3.88;1.70;;;;;;;22.08;59.15;98080.94;5002721;28;20431;-58
2022/08/14 02:16:29;;;;;;;4.00;1.83;;;;;;;22.13;59.19;98081.03;5019645;28;20044;-57
2022/08/14 02:18:57;;;;;;;3.78;1.80;;;;;;;22.09;58.71;98066.66;4999393;28;20026;-58
2022/08/14 02:21:23;;;;;;;3.53;1.70;;;;;;;21.97;59.28;98066.66;5001631;28;20060;-57
2022/08/14 02:23:50;;;;;;;3.80;1.77;;;;;;;22.00;59.58;98073.38;5015124;28;20033;-58
2022/08/14 02:26:38;;;;;;;3.97;1.77;;;;;;;21.97;59.81;98074.63;5002538;28;20048;-57
2022/08/14 02:29:07;;;;;;;4.25;1.98;;;;;;;21.94;60.02;98075.09;5017194;28;20047;-58
2022/08/14 02:31:36;;;;;;;4.15;1.90;;;;;;;21.76;60.72;98072.53;5021132;28;20631;-57
2022/08/14 02:34:09;;;;;;;3.90;1.70;;;;;;;21.79;60.46;98075.53;5003049;28;20025;-58
2022/08/14 02:36:36;;;;;;;4.38;1.80;;;;;;;21.64;60.47;98068.06;5022462;28;20032;-58
2022/08/14 02:39:02;;;;;;;3.97;1.60;;;;;;;21.46;60.12;98031.13;5020422;28;20065;-58
2022/08/14 02:41:28;;;;;;;3.60;1.75;;;;;;;21.70;60.31;98061.03;5019336;28;20596;-57
2022/08/14 02:43:53;;;;;;;3.42;1.63;;;;;;;21.27;60.63;98023.28;5018982;28;20041;-57
2022/08/14 02:46:20;;;;;;;4.05;1.80;;;;;;;21.63;60.83;98071.75;5018751;28;20057;-57
2022/08/14 02:48:46;;;;;;;4.35;1.67;;;;;;;21.53;60.98;98068.84;5017129;28;20028;-58
2022/08/14 02:51:13;;;;;;;3.65;1.75;;;;;;;21.36;61.08;98013.19;5013712;28;20026;-57
2022/08/14 02:53:41;;;;;;;3.67;1.75;;;;;;;21.67;60.82;98058.88;5014734;28;20029;-58
2022/08/14 02:56:09;;;;;;;3.65;1.77;;;;;;;21.59;61.23;98054.72;5016416;28;20038;-57
2022/08/14 02:58:37;;;;;;;5.80;1.83;;;;;;;21.49;61.62;98062.44;5016987;28;20029;-57
2022/08/14 03:01:07;;;;;;;6.57;1.80;;;;;;;21.27;62.01;98033.06;5017498;28;20496;-58
2022/08/14 03:03:34;;;;;;;4.10;1.75;;;;;;;21.36;62.55;98052.03;4995724;28;20641;-57
2022/08/14 03:05:59;;;;;;;3.70;1.65;;;;;;;21.39;62.52;98065.59;5011849;28;20202;-57
2022/08/14 03:08:26;;;;;;;4.30;2.05;;;;;;;21.24;62.98;98044.88;5017038;28;20029;-56
2022/08/14 03:10:51;;;;;;;4.10;1.85;;;;;;;21.30;62.90;98051.91;5018930;28;20029;-60
2022/08/14 03:13:18;;;;;;;4.30;1.90;;;;;;;21.33;62.94;98044.56;5019415;28;20088;-58
2022/08/14 03:15:45;;;;;;;3.80;1.80;;;;;;;21.27;63.04;98052.34;5001802;28;20033;-59
2022/08/14 03:18:12;;;;;;;4.40;1.80;;;;;;;21.06;63.02;97995.53;5017561;28;20035;-58
2022/08/14 03:20:38;;;;;;;6.70;1.98;;;;;;;21.18;63.41;98021.19;5016955;28;20028;-58
2022/08/14 03:23:03;;;;;;;4.00;1.70;;;;;;;21.19;63.49;98009.56;5019280;28;20049;-58
2022/08/14 03:25:32;;;;;;;4.10;1.90;;;;;;;21.19;63.21;98015.69;5022230;28;20037;-57
2022/08/14 03:28:02;;;;;;;4.40;1.80;;;;;;;21.16;63.18;98004.75;5020944;28;20692;-57
2022/08/14 03:30:29;;;;;;;3.80;1.80;;;;;;;21.15;63.20;98008.44;5021928;28;20041;-58
2022/08/14 03:32:56;;;;;;;3.88;1.92;;;;;;;21.07;63.62;98005.09;5020269;28;20033;-57
2022/08/14 03:35:22;;;;;;;3.65;1.80;;;;;;;21.04;63.55;97994.16;5006861;28;20061;-57
2022/08/14 03:37:48;;;;;;;7.63;2.00;;;;;;;21.02;63.90;97996.22;5013518;28;20113;-58
2022/08/14 03:40:14;;;;;;;4.80;1.83;;;;;;;21.00;64.18;97991.16;5022084;28;20056;-57
2022/08/14 03:42:39;;;;;;;3.50;1.60;;;;;;;21.03;64.04;97998.66;5019775;28;20025;-59
2022/08/14 03:45:05;;;;;;;4.28;1.90;;;;;;;21.01;64.20;98003.34;5004496;28;20448;-59
2022/08/14 03:47:39;;;;;;;4.30;2.10;;;;;;;21.01;63.93;98000.72;5019919;28;20518;-57
2022/08/14 03:50:09;;;;;;;4.00;1.70;;;;;;;21.01;63.64;98002.53;5021485;28;20068;-58
2022/08/14 03:52:35;;;;;;;5.63;2.13;;;;;;;21.02;63.20;97999.66;5021261;28;20515;-58
2022/08/14 03:55:02;;;;;;;4.25;1.70;;;;;;;20.93;63.43;98003.66;5021035;28;20128;-57
2022/08/14 03:57:31;;;;;;;6.78;1.90;;;;;;;20.69;63.52;97973.75;5017275;28;20430;-58
2022/08/14 04:00:02;;;;;;;4.37;2.00;;;;;;;20.88;63.79;97998.25;5022984;28;20044;-58
2022/08/14 04:02:27;;;;;;;5.10;2.00;;;;;;;20.88;63.23;98000.91;5020646;28;20643;-58
2022/08/14 04:04:52;;;;;;;3.83;1.73;;;;;;;20.87;63.79;97996.66;5022590;28;20029;-57
2022/08/14 04:07:18;;;;;;;3.58;1.70;;;;;;;20.82;63.80;97994.69;5004203;28;20064;-57
2022/08/14 04:09:43;;;;;;;3.78;1.80;;;;;;;20.86;63.43;98005.59;5003169;28;20037;-59
2022/08/14 04:12:09;;;;;;;5.40;1.92;;;;;;;20.90;63.26;98002.28;5018186;28;20033;-58
2022/08/14 04:14:34;;;;;;;3.42;1.70;;;;;;;20.88;63.24;98014.94;5020079;28;20040;-57
2022/08/14 04:17:00;;;;;;;4.97;2.00;;;;;;;20.62;62.92;97986.25;5028986;28;20507;-57
2022/08/14 04:19:25;;;;;;;3.88;1.77;;;;;;;20.87;62.74;98007.22;5021475;28;20238;-59
2022/08/14 04:21:51;;;;;;;5.78;2.08;;;;;;;20.80;63.31;98012.59;5023145;28;20036;-58
2022/08/14 04:24:16;;;;;;;4.28;2.00;;;;;;;20.83;63.22;98017.44;5021655;28;20314;-58
2022/08/14 04:26:43;;;;;;;4.15;1.88;;;;;;;20.74;63.42;98013.50;5005985;28;20033;-57
2022/08/14 04:29:11;;;;;;;4.65;2.03;;;;;;;20.85;63.09;98025.94;5004378;28;20025;-58
2022/08/14 04:31:38;;;;;;;4.53;2.00;;;;;;;20.82;63.46;98025.59;5005713;28;20107;-57
2022/08/14 04:34:04;;;;;;;4.60;2.05;;;;;;;20.61;63.25;97988.09;5024141;28;21653;-58
2022/08/14 04:36:30;;;;;;;4.00;1.80;;;;;;;20.91;63.21;98025.03;5021325;28;20880;-58
2022/08/14 04:44:24;;;;;;;4.30;1.95;;;;;;;20.92;63.47;98036.44;5021104;28;20088;-57
2022/08/14 04:49:35;;;;;;;4.30;1.92;;;;;;;21.01;63.20;98031.59;5022089;28;20060;-58
2022/08/14 04:52:02;;;;;;;4.53;1.80;;;;;;;21.08;63.06;98040.25;5020655;28;20032;-56
2022/08/14 04:54:28;;;;;;;3.80;1.70;;;;;;;20.87;63.70;98031.00;5021327;28;20061;-57
2022/08/14 04:56:54;;;;;;;3.70;1.60;;;;;;;20.93;63.61;98038.03;5001419;28;20136;-57
2022/08/14 04:59:20;;;;;;;5.55;2.10;;;;;;;20.91;63.51;98030.31;5018308;28;20026;-57
2022/08/14 05:01:46;;;;;;;3.90;1.95;;;;;;;21.00;63.44;98030.00;5002083;28;20033;-56
2022/08/14 05:04:11;;;;;;;5.13;1.90;;;;;;;20.95;63.92;98028.03;4998787;28;20036;-58
2022/08/14 05:06:37;;;;;;;3.90;1.83;;;;;;;21.03;63.88;98034.84;5020680;28;20021;-57
2022/08/14 05:09:03;;;;;;;3.53;1.42;;;;;;;20.95;63.89;98035.97;5021892;28;20029;-57
2022/08/14 05:11:32;;;;;;;4.68;1.85;;;;;;;20.88;63.95;98036.06;5020530;28;20091;-57
2022/08/14 05:13:58;;;;;;;3.92;1.85;;;;;;;20.78;65.03;98029.72;5017501;28;20045;-59
2022/08/14 05:16:28;;;;;;;4.90;1.70;;;;;;;20.89;65.13;98016.53;5000863;28;20052;-58
2022/08/14 05:18:54;;;;;;;4.93;1.92;;;;;;;20.70;65.37;97988.59;5002295;28;20079;-56
2022/08/14 05:21:20;;;;;;;3.88;1.80;;;;;;;21.01;64.82;98007.81;5017588;28;20029;-57
2022/08/14 05:23:46;;;;;;;3.78;1.77;;;;;;;21.06;63.79;98023.81;5000572;28;20536;-58
2022/08/14 05:26:16;;;;;;;4.20;1.70;;;;;;;20.93;62.40;98022.97;5014881;28;20079;-59
2022/08/14 05:28:45;;;;;;;4.05;1.80;;;;;;;20.67;62.39;97976.59;5018358;28;20831;-57
2022/08/14 05:31:13;;;;;;;3.85;1.77;;;;;;;20.59;62.26;97968.16;5003489;28;20067;-57
2022/08/14 05:33:38;;;;;;;4.43;1.80;;;;;;;20.74;62.91;98003.75;5014989;28;20026;-56
2022/08/14 05:36:06;;;;;;;4.25;1.95;;;;;;;20.82;63.02;98007.09;5018926;28;20511;-57
2022/08/14 05:38:38;;;;;;;5.63;1.80;;;;;;;20.79;63.17;98011.00;4999465;28;20041;-57
2022/08/14 05:41:07;;;;;;;4.18;1.77;;;;;;;20.76;63.81;98013.28;5001955;28;20022;-57
2022/08/14 05:43:32;;;;;;;4.65;2.20;;;;;;;20.56;63.53;97961.50;5017033;28;20036;-57
2022/08/14 05:45:58;;;;;;;4.85;2.10;;;;;;;20.93;63.52;98003.66;5021399;28;20540;-57
2022/08/14 05:48:24;;;;;;;4.40;2.03;;;;;;;20.88;63.58;97993.78;5012852;28;20148;-58
2022/08/14 05:50:55;;;;;;;4.78;2.00;;;;;;;20.83;63.58;98003.44;5021250;28;20485;-58
2022/08/14 05:53:22;;;;;;;4.78;1.83;;;;;;;20.72;64.54;97992.59;5019678;28;20575;-58
2022/08/14 05:55:48;;;;;;;4.00;1.92;;;;;;;20.69;64.40;97985.09;5015663;28;20116;-58
2022/08/14 05:58:13;;;;;;;4.43;1.85;;;;;;;20.78;63.82;97985.59;5018849;28;20041;-58
2022/08/14 06:00:41;;;;;;;4.00;1.88;;;;;;;20.68;63.76;97983.50;5020156;28;20033;-60
2022/08/14 06:03:15;;;;;;;4.40;1.90;;;;;;;20.67;63.33;97965.25;5018777;28;20123;-58
2022/08/14 06:05:50;;;;;;;4.15;1.88;;;;;;;20.73;62.96;97980.97;5002105;28;20043;-57
2022/08/14 06:08:18;;;;;;;4.70;1.98;;;;;;;20.66;62.99;97980.31;5001590;28;20025;-58
2022/08/14 06:10:43;;;;;;;5.20;1.90;;;;;;;20.69;63.46;97992.25;5014237;28;20056;-59
2022/08/14 06:13:09;;;;;;;4.15;2.00;;;;;;;20.54;62.43;97967.00;5003398;28;20036;-57
2022/08/14 06:15:35;;;;;;;4.63;1.95;;;;;;;20.49;62.35;97963.44;5018101;28;20484;-58
2022/08/14 06:18:00;;;;;;;4.03;2.00;;;;;;;20.47;61.77;97965.50;5011615;28;20069;-58
2022/08/14 06:20:26;;;;;;;4.07;1.80;;;;;;;20.68;61.90;98009.09;4998783;28;20034;-57
2022/08/14 06:22:52;;;;;;;7.13;2.08;;;;;;;20.73;62.02;98006.59;4996717;28;20108;-59
2022/08/14 06:25:17;;;;;;;4.97;1.90;;;;;;;20.79;61.84;98013.66;5021782;28;20440;-56
2022/08/14 06:27:47;;;;;;;3.85;1.75;;;;;;;20.79;61.79;98016.28;5015620;28;20037;-57
2022/08/14 06:30:16;;;;;;;;;;;;;;;20.80;61.90;98019.72;4996389;28;20026;-58
2022/08/14 06:32:42;;;;;;;4.10;1.88;;;;;;;20.77;61.47;98007.75;5007614;28;19916;-56
2022/08/14 06:35:09;;;;;;;6.15;2.00;;;;;;;20.77;62.12;98009.59;5017514;28;20441;-58
2022/08/14 06:37:49;;;;;;;4.25;2.10;;;;;;;20.80;62.09;98015.25;4997462;28;20083;-58
2022/08/14 06:40:17;;;;;;;4.93;1.95;;;;;;;20.76;62.16;98016.72;5007812;28;20103;-58
2022/08/14 06:42:43;;;;;;;4.72;1.85;;;;;;;20.70;62.01;98002.59;5001459;28;20030;-58
2022/08/14 06:45:09;;;;;;;3.97;1.90;;;;;;;20.72;61.40;97995.25;5013376;28;20476;-59
2022/08/14 06:47:36;;;;;;;4.00;1.80;;;;;;;20.54;61.28;97974.13;4997481;28;20323;-58
2022/08/14 06:50:07;;;;;;;4.57;1.85;;;;;;;20.88;61.49;98016.75;5017660;28;20368;-57
2022/08/14 06:52:32;;;;;;;5.60;1.85;;;;;;;20.92;61.79;98005.50;5010748;28;20052;-57
2022/08/14 06:54:58;;;;;;;4.90;1.90;;;;;;;20.67;62.33;97973.97;4999281;28;20846;-57
2022/08/14 06:57:24;;;;;;;3.92;1.80;;;;;;;20.84;60.86;97997.91;5010981;28;20052;-58
2022/08/14 06:59:49;;;;;;;4.72;1.92;;;;;;;20.79;60.57;98003.06;5009065;28;20061;-56
2022/08/14 07:07:45;;;;;;;4.78;2.00;;;;;;;20.91;61.30;97995.16;5013327;28;20072;-56
2022/08/14 07:10:11;;;;;;;4.00;1.75;;;;;;;20.82;61.65;97993.88;5005862;28;20029;-56
2022/08/14 07:12:37;;;;;;;4.45;1.80;;;;;;;20.88;60.29;97987.69;5002025;28;20041;-58
2022/08/14 07:15:04;;;;;;;4.53;1.83;;;;;;;20.71;59.64;97945.28;5012853;28;20511;-57
2022/08/14 07:17:30;;;;;;;4.20;1.90;;;;;;;20.86;59.45;97977.38;5014075;28;20167;-58
2022/08/14 07:19:55;;;;;;;4.63;1.73;;;;;;;20.91;58.99;97980.09;5021744;28;20033;-57
2022/08/14 07:22:21;;;;;;;5.30;1.95;;;;;;;20.94;58.49;97978.88;5011587;28;20385;-58
2022/08/14 07:24:46;;;;;;;4.00;1.90;;;;;;;20.95;58.24;97974.38;5012550;28;20538;-57
2022/08/14 07:27:11;;;;;;;4.45;1.90;;;;;;;21.00;57.95;97977.94;5020614;28;20029;-57
2022/08/14 07:29:37;;;;;;;5.38;2.05;;;;;;;21.18;57.66;97985.00;5012482;28;20130;-57
2022/08/14 07:32:03;;;;;;;4.75;1.75;;;;;;;21.23;57.19;97990.41;5000357;28;20029;-58
2022/08/14 07:34:28;;;;;;;4.50;1.75;;;;;;;20.98;57.18;97950.94;5015543;28;20117;-58
2022/08/14 07:36:54;;;;;;;5.45;2.08;;;;;;;21.33;56.97;97991.66;5002685;28;20469;-57
2022/08/14 07:39:20;;;;;;;4.72;1.88;;;;;;;21.36;56.72;97985.94;4998800;28;20630;-57
2022/08/14 07:41:45;;;;;;;4.63;2.10;;;;;;;21.57;58.11;98006.53;5018240;28;20143;-57
2022/08/14 07:44:10;;;;;;;4.72;1.73;;;;;;;21.71;58.04;98007.09;5017405;28;20534;-57
2022/08/14 07:46:36;;;;;;;4.65;1.90;;;;;;;21.76;57.60;98009.03;5012250;28;20029;-57
2022/08/14 07:49:02;;;;;;;4.40;2.00;;;;;;;21.81;56.57;98011.81;5020351;28;20104;-57
2022/08/14 07:51:28;;;;;;;3.78;1.83;;;;;;;21.81;57.18;98015.28;4993843;28;20499;-57
2022/08/14 07:53:54;;;;;;;4.47;2.00;;;;;;;22.01;56.52;98022.00;5015699;28;20045;-58
2022/08/14 07:56:19;;;;;;;4.38;1.75;;;;;;;22.02;56.33;98013.84;5014874;28;20025;-57
2022/08/14 07:58:45;;;;;;;3.95;1.90;;;;;;;21.73;55.02;97977.78;5017218;28;20403;-57
2022/08/14 08:01:11;;;;;;;4.60;1.80;;;;;;;21.84;54.61;98011.34;5015267;28;20071;-58
2022/08/14 08:03:39;;;;;;;3.70;1.67;;;;;;;21.96;54.53;98019.25;5011933;28;20683;-59
2022/08/14 08:06:05;;;;;;;4.15;2.10;;;;;;;21.83;54.53;98001.78;5013922;28;20044;-57
2022/08/14 08:08:31;;;;;;;5.22;2.50;;;;;;;22.08;55.41;98018.19;5015346;28;20472;-56
2022/08/14 08:10:57;;;;;;;5.25;2.30;;;;;;;22.19;54.28;98018.41;5007615;28;20061;-60
2022/08/14 08:13:23;;;;;;;4.43;2.13;;;;;;;22.26;54.57;98016.47;5002858;28;20801;-59
2022/08/14 08:15:55;;;;;;;4.65;2.10;;;;;;;22.33;55.52;98014.50;5012870;28;20104;-58
2022/08/14 08:18:22;;;;;;;4.50;2.13;;;;;;;22.32;54.70;98004.94;5010578;28;20037;-57
2022/08/14 08:20:49;;;;;;;3.92;2.00;;;;;;;22.75;53.93;98008.13;5013942;28;20026;-56
2022/08/14 08:23:17;;;;;;;7.97;3.75;;;;;;;23.56;52.15;98002.53;5018299;28;20033;-59
2022/08/14 08:25:48;;;;;;;6.13;2.65;;;;;;;24.09;49.35;98008.28;5017058;28;20025;-57
2022/08/14 08:28:22;;;;;;;5.82;1.95;;;;;;;24.65;47.81;98003.63;5018010;28;20136;-56
2022/08/14 08:30:50;;;;;;;4.25;1.80;;;;;;;25.29;45.67;98010.84;5017569;28;20200;-56
2022/08/14 08:33:17;;;;;;;5.18;1.73;;;;;;;26.02;44.03;98014.78;5004089;28;20029;-57
2022/08/14 08:35:43;;;;;;;3.20;1.50;;;;;;;26.53;42.44;98016.81;5003151;28;20499;-59
2022/08/14 08:38:11;;;;;;;4.10;1.63;;;;;;;27.04;39.78;98016.91;4919325;28;20785;-57
2022/08/14 08:40:42;;;;;;;5.07;1.90;;;;;;;27.60;38.68;98018.78;5014604;28;20048;-56
2022/08/14 08:43:26;;;;;;;4.80;1.52;;;;;;;28.27;37.39;98008.69;5012567;28;20036;-60
2022/08/14 08:45:55;;;;;;;4.35;1.50;;;;;;;28.41;35.13;97970.66;5012970;28;20033;-57
2022/08/14 08:48:28;;;;;;;3.50;1.40;;;;;;;28.63;33.98;97962.25;5006798;28;20022;-60
2022/08/14 08:50:56;;;;;;;3.80;1.60;;;;;;;28.24;33.48;97982.53;4998548;28;20025;-58
2022/08/14 08:53:21;;;;;;;3.50;1.60;;;;;;;28.33;35.13;97980.88;5005103;28;20029;-58
2022/08/14 08:55:47;;;;;;;3.42;1.50;;;;;;;27.77;37.82;97973.06;4992739;28;20021;-57
2022/08/14 08:58:16;;;;;;;4.70;1.63;;;;;;;27.75;39.56;97975.22;5001391;28;20641;-59
2022/08/14 09:00:45;;;;;;;3.60;1.58;;;;;;;28.05;39.49;97971.63;5017306;28;20113;-58
2022/08/14 09:03:19;;;;;;;4.35;1.60;;;;;;;27.51;39.85;97973.16;5002323;28;20035;-56
2022/08/14 09:06:04;;;;;;;4.15;1.90;;;;;;;27.42;38.53;97962.22;5003958;28;20689;-57
2022/08/14 09:08:32;;;;;;;4.68;1.80;;;;;;;27.73;39.18;97948.78;5013380;28;20403;-57
2022/08/14 09:10:59;;;;;;;4.35;1.65;;;;;;;27.40;39.61;97913.63;5006844;28;20034;-57
2022/08/14 09:13:25;;;;;;;3.80;1.60;;;;;;;27.84;37.33;97946.88;5011524;28;20034;-58
2022/08/14 09:15:51;;;;;;;3.85;1.70;;;;;;;28.19;37.81;97945.13;5011093;28;20495;-57
2022/08/14 09:18:18;;;;;;;4.45;1.65;;;;;;;27.84;36.99;97938.03;5006685;28;20040;-58
2022/08/14 09:20:46;;;;;;;3.65;1.70;;;;;;;27.52;38.17;97931.22;5008503;28;20127;-57
2022/08/14 09:23:12;;;;;;;4.07;1.63;;;;;;;27.11;39.01;97936.63;5014383;28;20107;-56
2022/08/14 09:25:41;;;;;;;3.95;1.65;;;;;;;26.91;38.47;97935.56;5000096;28;20108;-59
2022/08/14 09:28:07;;;;;;;3.90;1.75;;;;;;;26.64;37.65;97925.97;4995725;28;20045;-58
2022/08/14 09:30:36;;;;;;;3.92;1.75;;;;;;;26.48;37.55;97919.78;4993939;28;20488;-58
2022/08/14 09:33:01;;;;;;;3.83;1.77;;;;;;;26.45;38.13;97914.19;5010169;28;20484;-56
2022/08/14 09:35:52;;;;;;;3.80;1.92;;;;;;;26.38;39.03;97914.44;5015286;28;20021;-59
2022/08/14 09:38:38;;;;;;;4.10;1.88;;;;;;;26.29;39.42;97905.38;4996109;28;20042;-58
2022/08/14 09:41:22;;;;;;;4.40;1.83;;;;;;;25.98;39.92;97875.22;5023061;28;20041;-56
2022/08/14 09:44:18;;;;;;;4.68;1.80;;;;;;;26.07;40.38;97909.06;5011992;28;20026;-56
2022/08/14 09:46:54;;;;;;;3.95;1.50;;;;;;;26.20;40.98;97909.63;5043524;28;20033;-57
2022/08/14 09:49:35;;;;;;;3.83;1.55;;;;;;;26.16;40.54;97919.19;4999690;28;20074;-56
2022/08/14 09:52:05;;;;;;;4.00;1.75;;;;;;;26.18;41.12;97912.56;5010477;28;20029;-59
2022/08/14 09:54:38;;;;;;;4.07;1.80;;;;;;;26.02;40.82;97922.34;5012183;28;20532;-58
2022/08/14 09:57:05;;;;;;;4.07;1.90;;;;;;;25.88;41.55;97908.72;5017632;28;20067;-57
2022/08/14 09:59:39;;;;;;;5.63;1.80;;;;;;;25.99;43.76;97920.19;5010843;28;20025;-57
2022/08/14 10:02:28;;;;;;;3.75;1.63;;;;;;;25.91;43.67;97918.03;4996727;28;20037;-56
2022/08/14 10:05:01;;;;;;;;;;;;;;;25.94;43.01;97920.22;4993055;28;20392;-59
2022/08/14 10:07:34;;;;;;;3.50;1.58;;;;;;;25.92;43.69;97914.31;5014498;28;20051;-58
2022/08/14 10:10:00;;;;;;;4.38;1.70;;;;;;;25.86;42.61;97904.69;5008107;28;20037;-58
2022/08/14 10:12:48;;;;;;;4.13;1.92;;;;;;;25.90;42.96;97909.25;4999855;28;20750;-57
2022/08/14 10:15:18;;;;;;;5.72;1.65;;;;;;;25.89;43.55;97904.19;5011424;28;20037;-57
2022/08/14 10:17:45;;;;;;;5.18;1.70;;;;;;;26.03;43.49;97891.19;4997427;28;20143;-58
2022/08/14 10:20:12;;;;;;;3.90;1.60;;;;;;;26.28;42.11;97901.09;5016478;28;20491;-57
2022/08/14 10:22:38;;;;;;;4.70;1.80;;;;;;;26.47;39.28;97893.41;5008148;28;20509;-56
2022/08/14 10:25:13;;;;;;;4.88;1.50;;;;;;;26.60;38.36;97870.75;5012953;28;20042;-57
2022/08/14 10:27:39;;;;;;;3.75;1.55;;;;;;;26.80;36.50;97869.97;5014070;28;20083;-58
2022/08/14 10:30:15;;;;;;;3.80;1.80;;;;;;;27.14;37.01;97894.16;4999455;28;20025;-58
2022/08/14 10:32:45;;;;;;;4.28;1.70;;;;;;;27.14;35.89;97883.50;5010645;28;20124;-58
2022/08/14 10:35:11;;;;;;;3.67;1.63;;;;;;;27.35;35.59;97886.97;5018338;28;20314;-58
2022/08/14 10:37:39;;;;;;;4.60;1.60;;;;;;;27.53;36.42;97890.13;5014847;28;20041;-57
2022/08/14 10:40:06;;;;;;;4.72;1.83;;;;;;;27.51;35.46;97893.06;5003294;28;20034;-57
2022/08/14 10:42:36;;;;;;;4.90;1.60;;;;;;;27.38;35.21;97865.06;5001997;28;20120;-58
2022/08/14 10:45:02;;;;;;;4.10;1.90;;;;;;;27.81;34.88;97891.31;5013997;28;20128;-57
2022/08/14 10:47:38;;;;;;;4.53;1.67;;;;;;;27.85;35.00;97895.03;4974803;28;20026;-57
2022/08/14 10:50:05;;;;;;;7.63;1.60;;;;;;;27.77;34.90;97882.25;5009534;28;20030;-58
2022/08/14 10:52:33;;;;;;;3.58;1.65;;;;;;;27.81;34.10;97883.31;5011311;28;20344;-56
2022/08/14 10:55:38;;;;;;;4.35;1.75;;;;;;;27.74;34.67;97878.25;5009600;28;20128;-57
2022/08/14 10:58:09;;;;;;;3.70;1.60;;;;;;;27.71;34.70;97875.34;5006961;28;21982;-57
2022/08/14 11:00:35;;;;;;;3.80;1.70;;;;;;;27.85;34.89;97871.00;5004698;28;20484;-58
2022/08/14 11:03:16;;;;;;;4.55;2.10;;;;;;;27.88;33.73;97880.34;5006590;28;20033;-57
2022/08/14 11:05:44;;;;;;;3.92;1.55;;;;;;;27.87;34.62;97873.41;5002122;28;20029;-59
2022/08/14 11:08:11;;;;;;;4.18;1.58;;;;;;;27.77;34.57;97836.88;5009821;28;20061;-57
2022/08/14 11:10:45;;;;;;;4.30;1.70;;;;;;;27.96;34.78;97853.84;5009846;28;20083;-56
2022/08/14 11:13:26;;;;;;;3.90;1.50;;;;;;;27.96;34.14;97867.22;5004203;28;20745;-58
2022/08/14 11:15:54;;;;;;;4.18;1.70;;;;;;;28.07;34.22;97870.63;5007189;28;20100;-57
2022/08/14 11:18:20;;;;;;;4.30;1.60;;;;;;;28.24;33.88;97861.44;5006444;28;20737;-58
2022/08/14 11:20:53;;;;;;;4.68;1.85;;;;;;;28.19;33.85;97860.41;5007206;28;20033;-57
2022/08/14 11:23:21;;;;;;;3.90;1.75;;;;;;;28.11;35.00;97866.34;5010133;28;20039;-56
2022/08/14 11:25:48;;;;;;;4.43;1.90;;;;;;;27.87;34.36;97826.09;5006400;28;20526;-58
2022/08/14 11:28:14;;;;;;;5.53;2.10;;;;;;;27.94;34.98;97831.19;5022986;28;20018;-56
2022/08/14 11:30:43;;;;;;;6.75;2.13;;;;;;;28.11;34.85;97865.53;5008776;28;20025;-58
2022/08/14 11:33:09;;;;;;;4.88;2.22;;;;;;;28.06;35.34;97861.03;4992472;28;20059;-58
2022/08/14 11:35:36;;;;;;;4.32;1.90;;;;;;;27.95;35.48;97854.94;4998846;28;21783;-58
2022/08/14 11:38:04;;;;;;;4.18;1.90;;;;;;;28.01;35.41;97862.94;5005179;28;20083;-57
2022/08/14 11:40:33;;;;;;;4.00;1.83;;;;;;;28.09;34.78;97857.00;4997577;28;20497;-58
2022/08/14 11:43:00;;;;;;;3.92;1.80;;;;;;;28.03;35.84;97860.78;5007089;28;20955;-57
2022/08/14 11:45:31;;;;;;;4.45;1.92;;;;;;;27.92;35.30;97836.00;5002202;28;20428;-58
2022/08/14 11:47:57;;;;;;;3.90;1.80;;;;;;;28.19;35.46;97856.94;5012765;28;20022;-59
2022/08/14 11:50:33;;;;;;;3.70;1.90;;;;;;;28.28;35.41;97854.47;5002329;28;20455;-57
2022/08/14 11:53:01;;;;;;;3.75;1.80;;;;;;;28.13;35.24;97864.19;5020317;28;20056;-57
2022/08/14 11:55:36;;;;;;;6.43;2.10;;;;;;;28.21;35.25;97856.66;5021117;28;20041;-57